Time;durP1;ratioP1;P1;durP2;ratioP2;P2;SDS_P1;SDS_P2;PMS_P1;PMS_P2;Temp;Humidity;BMP_temperature;BMP_pressure;BME280_temperature;BME280_humidity;BME280_pressure;Samples;Min_cycle;Max_cycle;Signal;HPM_P1;HPM_P2
2021/12/05 00:23:24;;;;;;;;;24.00;24.00;15.20;99.90;;;;;;5061018;28;11521;-53
2021/12/05 00:25:58;;;;;;;;;25.75;22.25;15.10;99.90;;;;;;5043349;28;11582;-53
2021/12/05 00:34:32;;;;;;;;;21.25;21.25;15.10;99.90;;;;;;5061925;28;12243;-53
2021/12/05 00:37:49;;;;;;;;;22.00;22.00;15.10;99.90;;;;;;5061585;28;11644;-52
2021/12/05 01:05:49;;;;;;;;;14.00;14.00;15.00;99.90;;;;;;5065088;28;11508;-53
2021/12/05 01:08:36;;;;;;;;;15.00;15.00;15.00;99.90;;;;;;5062157;28;11473;-53
2021/12/05 01:16:38;;;;;;;;;12.50;12.50;14.90;99.90;;;;;;5055694;28;11500;-54
2021/12/05 01:19:15;;;;;;;;;17.00;16.00;14.90;99.90;;;;;;4961982;28;2847593;-54
2021/12/05 01:21:52;;;;;;;;;11.00;11.00;14.90;99.90;;;;;;5064485;28;8812;-53
2021/12/05 01:30:15;;;;;;;;;12.00;12.00;14.90;99.90;;;;;;5073414;28;11604;-54
2021/12/05 01:47:25;;;;;;;;;14.00;14.00;14.80;99.90;;;;;;5060775;28;11625;-53
2021/12/05 02:29:42;;;;;;;;;9.75;9.75;14.60;99.90;;;;;;5065268;28;11529;-53
2021/12/05 02:38:10;;;;;;;;;10.50;10.50;14.50;99.90;;;;;;5061737;28;11468;-51
2021/12/05 02:43:30;;;;;;;;;7.75;7.75;14.50;99.90;;;;;;5060884;28;11528;-51
2021/12/05 02:46:04;;;;;;;;;9.75;9.75;14.50;99.90;;;;;;5047681;28;11466;-53
2021/12/05 02:48:37;;;;;;;;;8.50;8.50;14.50;99.90;;;;;;5051190;28;11454;-51
2021/12/05 02:51:17;;;;;;;;;8.75;8.75;14.50;99.90;;;;;;5058191;28;12403;-51
2021/12/05 02:54:01;;;;;;;;;8.00;8.00;14.50;99.90;;;;;;5040427;28;11468;-52
2021/12/05 02:56:40;;;;;;;;;10.00;10.00;14.50;99.90;;;;;;5075319;28;12131;-52
2021/12/05 02:59:32;;;;;;;;;8.00;8.00;14.50;99.90;;;;;;5056932;28;12170;-54
2021/12/05 03:02:09;;;;;;;;;7.00;7.00;14.50;99.90;;;;;;5061266;28;12190;-53
2021/12/05 03:04:44;;;;;;;;;7.25;7.25;14.50;99.90;;;;;;5062524;28;12132;-53
2021/12/05 03:07:19;;;;;;;;;9.75;9.50;14.50;99.90;;;;;;5067586;28;12206;-49
2021/12/05 03:09:49;;;;;;;;;11.50;10.00;14.40;99.90;;;;;;5051080;28;11519;-52
2021/12/05 03:12:20;;;;;;;;;9.25;9.25;14.40;99.90;;;;;;5061281;28;11463;-54
2021/12/05 03:14:59;;;;;;;;;9.00;9.00;14.40;99.90;;;;;;5063979;28;11442;-53
2021/12/05 03:17:30;;;;;;;;;8.00;7.75;14.40;99.90;;;;;;5059435;28;11606;-53
2021/12/05 03:20:01;;;;;;;;;8.00;8.00;14.40;99.90;;;;;;5058344;28;11510;-54
2021/12/05 03:22:32;;;;;;;;;11.25;10.75;14.40;99.90;;;;;;5049893;28;11447;-52
2021/12/05 03:25:07;;;;;;;;;10.75;10.25;14.40;99.90;;;;;;5056197;28;11620;-53
2021/12/05 03:27:41;;;;;;;;;8.25;8.25;14.40;99.90;;;;;;5063584;28;11490;-53
2021/12/05 03:30:19;;;;;;;;;9.25;9.25;14.40;99.90;;;;;;5056895;28;11576;-49
2021/12/05 03:32:50;;;;;;;;;10.50;10.50;14.40;99.90;;;;;;5061493;28;11464;-54
2021/12/05 03:35:27;;;;;;;;;11.25;11.25;14.40;99.90;;;;;;5054620;28;11437;-53
2021/12/05 03:38:02;;;;;;;;;9.50;9.50;14.40;99.90;;;;;;5059154;28;11482;-53
2021/12/05 03:40:36;;;;;;;;;9.25;9.25;14.40;99.90;;;;;;5062499;28;11486;-52
2021/12/05 03:43:15;;;;;;;;;6.00;6.00;14.40;99.90;;;;;;5055123;28;12142;-54
2021/12/05 03:45:51;;;;;;;;;9.25;9.25;14.40;99.90;;;;;;5041284;28;11463;-50
2021/12/05 03:48:23;;;;;;;;;12.00;12.00;14.40;99.90;;;;;;5067296;28;11480;-50
2021/12/05 03:50:58;;;;;;;;;9.50;9.50;14.40;99.90;;;;;;5062417;28;11528;-54
2021/12/05 03:53:30;;;;;;;;;8.75;8.75;14.30;99.90;;;;;;5059007;28;11448;-50
2021/12/05 03:56:05;;;;;;;;;9.00;9.00;14.40;99.90;;;;;;5057697;28;11459;-52
2021/12/05 03:58:39;;;;;;;;;12.75;11.25;14.40;99.90;;;;;;5038889;28;11448;-55
2021/12/05 04:01:14;;;;;;;;;9.25;9.25;14.40;99.90;;;;;;5069014;28;11474;-55
2021/12/05 04:03:49;;;;;;;;;8.75;8.75;14.40;99.90;;;;;;5063119;27;11465;-45
2021/12/05 04:06:22;;;;;;;;;13.75;13.75;14.40;99.90;;;;;;5060902;28;11419;-53
2021/12/05 04:08:55;;;;;;;;;10.75;10.75;14.50;99.90;;;;;;5058614;28;13447;-53
2021/12/05 04:11:37;;;;;;;;;10.00;10.00;14.60;99.90;;;;;;5058887;28;11501;-55
2021/12/05 04:14:11;;;;;;;;;8.00;8.00;14.60;99.90;;;;;;5083487;27;11600;-55
2021/12/05 04:16:45;;;;;;;;;8.75;8.75;14.60;99.90;;;;;;5059608;28;11546;-56
2021/12/05 04:19:16;;;;;;;;;10.25;10.25;14.60;99.90;;;;;;5078867;28;11479;-54
2021/12/05 04:21:48;;;;;;;;;9.00;7.25;14.60;99.90;;;;;;5063955;28;11479;-54
2021/12/05 04:24:22;;;;;;;;;10.25;10.25;14.60;99.90;;;;;;5060321;28;12229;-53
2021/12/05 04:26:52;;;;;;;;;11.25;9.75;14.60;99.90;;;;;;5059800;28;11481;-53
2021/12/05 04:29:28;;;;;;;;;9.50;8.50;14.60;99.90;;;;;;5060876;28;11426;-52
2021/12/05 04:31:58;;;;;;;;;8.25;8.25;14.60;99.90;;;;;;5055490;28;11449;-55
2021/12/05 04:34:29;;;;;;;;;8.00;8.00;14.60;99.90;;;;;;5087321;27;11454;-55
2021/12/05 04:37:00;;;;;;;;;10.00;10.00;14.60;99.90;;;;;;5065329;28;12126;-54
2021/12/05 04:39:33;;;;;;;;;9.00;9.00;14.60;99.90;;;;;;5070066;28;11913;-55
2021/12/05 04:42:04;;;;;;;;;9.50;9.50;14.50;99.90;;;;;;5057175;28;11315;-54
2021/12/05 04:44:35;;;;;;;;;9.50;9.50;14.50;99.90;;;;;;5066799;28;11445;-55
2021/12/05 04:47:09;;;;;;;;;10.00;10.00;14.50;99.90;;;;;;5064184;28;11428;-54
2021/12/05 04:49:41;;;;;;;;;10.75;10.75;14.50;99.90;;;;;;5078851;28;11478;-52
2021/12/05 04:52:17;;;;;;;;;10.25;10.25;14.40;99.90;;;;;;5063189;28;11469;-53
2021/12/05 04:54:47;;;;;;;;;6.50;6.50;14.40;99.90;;;;;;5049307;28;11519;-52
2021/12/05 04:57:20;;;;;;;;;11.00;11.00;14.50;99.90;;;;;;5067946;28;11451;-55
2021/12/05 04:59:53;;;;;;;;;9.00;9.00;14.50;99.90;;;;;;5049969;28;11480;-56
2021/12/05 05:02:22;;;;;;;;;11.50;11.50;14.50;99.90;;;;;;5070609;28;11476;-54
2021/12/05 05:04:54;;;;;;;;;8.75;8.75;14.50;99.90;;;;;;5064531;28;11469;-53
2021/12/05 05:07:28;;;;;;;;;9.00;9.00;14.40;99.90;;;;;;5069490;28;11384;-54
2021/12/05 05:10:04;;;;;;;;;6.75;6.75;14.40;99.90;;;;;;5064433;28;11491;-55
2021/12/05 05:12:36;;;;;;;;;9.00;9.00;14.30;99.90;;;;;;5070445;28;11453;-55
2021/12/05 05:15:08;;;;;;;;;8.00;8.00;14.40;99.90;;;;;;5063406;28;11468;-54
2021/12/05 05:17:40;;;;;;;;;6.50;6.50;14.40;99.90;;;;;;5067926;28;11436;-55
2021/12/05 05:26:24;;;;;;;;;10.00;8.25;14.40;99.90;;;;;;5056734;28;11478;-54
2021/12/05 05:39:14;;;;;;;;;7.25;7.25;14.40;99.90;;;;;;5063901;28;11441;-54
2021/12/05 05:40:15;;;;;;;;;8.00;8.00;14.30;99.90;;;;;;5069687;28;11465;-54
2021/12/05 05:48:00;;;;;;;;;10.75;10.75;14.30;99.90;;;;;;5073303;28;11466;-65
2021/12/05 05:50:31;;;;;;;;;10.00;10.00;14.30;99.90;;;;;;5061367;28;11476;-68
2021/12/05 05:53:02;;;;;;;;;10.50;10.50;14.30;99.90;;;;;;5067540;27;11502;-65
2021/12/05 05:55:33;;;;;;;;;10.75;9.00;14.30;99.90;;;;;;5064243;28;11453;-64
2021/12/05 05:58:10;;;;;;;;;9.25;9.25;14.30;99.90;;;;;;5067957;28;11433;-64
2021/12/05 06:00:58;;;;;;;;;8.25;8.25;14.30;99.90;;;;;;5068440;28;11421;-62
2021/12/05 06:03:32;;;;;;;;;8.75;8.75;14.30;99.90;;;;;;5065859;28;11490;-64
2021/12/05 06:06:07;;;;;;;;;13.25;13.25;14.30;99.90;;;;;;5067161;28;11430;-62
2021/12/05 06:08:39;;;;;;;;;10.75;10.75;14.30;99.90;;;;;;5068909;28;11422;-66
2021/12/05 06:11:13;;;;;;;;;8.00;8.00;14.30;99.90;;;;;;5060985;28;11414;-64
2021/12/05 06:13:44;;;;;;;;;12.00;12.00;14.30;99.90;;;;;;5066346;28;11465;-62
2021/12/05 06:16:17;;;;;;;;;14.75;14.75;14.30;99.90;;;;;;5062438;28;11477;-63
2021/12/05 06:18:48;;;;;;;;;11.00;11.00;14.30;99.90;;;;;;5064392;28;11600;-62
2021/12/05 06:21:18;;;;;;;;;12.25;12.25;14.30;99.90;;;;;;5049713;28;11500;-71
2021/12/05 06:23:49;;;;;;;;;11.75;11.75;14.30;99.90;;;;;;5063723;28;12242;-67
2021/12/05 06:26:23;;;;;;;;;14.50;13.50;14.30;99.90;;;;;;5050290;28;11647;-70
2021/12/05 06:29:07;;;;;;;;;14.50;14.50;14.30;99.90;;;;;;5066874;28;11443;-67
2021/12/05 06:47:53;;;;;;;;;14.25;13.50;14.20;99.90;;;;;;5071438;28;12215;-67
2021/12/05 06:50:24;;;;;;;;;14.00;14.00;14.20;99.90;;;;;;5057413;28;11914;-65
2021/12/05 06:52:55;;;;;;;;;12.00;12.00;14.20;99.90;;;;;;5067824;28;11447;-68
2021/12/05 06:55:26;;;;;;;;;14.75;14.75;14.20;99.90;;;;;;5061163;28;11510;-69
2021/12/05 06:57:55;;;;;;;;;16.25;16.25;14.20;99.90;;;;;;5068057;28;11518;-65
2021/12/05 07:00:31;;;;;;;;;17.50;17.50;14.20;99.90;;;;;;5062829;28;11528;-63
2021/12/05 07:03:02;;;;;;;;;13.25;13.25;14.20;99.90;;;;;;5062904;27;12318;-72
2021/12/05 07:08:26;;;;;;;;;17.50;17.50;14.20;99.90;;;;;;5061629;28;11547;-58
2021/12/05 07:11:04;;;;;;;;;16.50;14.75;14.20;99.90;;;;;;5060738;28;11707;-62
2021/12/05 07:14:08;;;;;;;;;15.00;15.00;14.20;99.90;;;;;;5065774;28;12214;-64
2021/12/05 07:19:19;;;;;;;;;11.75;11.75;14.20;99.90;;;;;;5063863;28;11548;-66
2021/12/05 07:21:58;;;;;;;;;14.25;14.25;14.20;99.90;;;;;;5052778;28;11508;-65
2021/12/05 07:40:19;;;;;;;;;16.25;15.50;14.10;99.90;;;;;;5066255;28;11466;-62
2021/12/05 07:41:54;;;;;;;;;16.50;16.50;14.10;99.90;;;;;;5050824;28;11410;-62
2021/12/05 07:44:24;;;;;;;;;15.50;15.50;14.10;99.90;;;;;;5055289;28;11751;-62
2021/12/05 07:46:56;;;;;;;;;16.75;16.75;14.10;99.90;;;;;;5073796;28;11539;-65
2021/12/05 07:49:27;;;;;;;;;16.75;16.75;14.10;99.90;;;;;;5066267;28;11515;-62
2021/12/05 07:51:59;;;;;;;;;15.75;15.75;14.10;99.90;;;;;;5063408;28;11490;-63
2021/12/05 08:00:15;;;;;;;;;14.25;14.25;14.10;99.90;;;;;;5072592;28;11477;-62
2021/12/05 08:16:52;;;;;;;;;14.75;14.75;14.10;99.90;;;;;;5072218;28;11506;-64
2021/12/05 08:19:25;;;;;;;;;12.50;12.50;14.10;99.90;;;;;;5066475;28;12416;-64
2021/12/05 08:21:55;;;;;;;;;18.25;18.25;14.10;99.90;;;;;;5074178;28;11587;-64
2021/12/05 08:24:32;;;;;;;;;18.25;18.25;14.10;99.90;;;;;;5053724;28;11571;-64
2021/12/05 08:27:05;;;;;;;;;17.00;17.00;14.10;99.90;;;;;;5075913;28;11667;-64
2021/12/05 08:29:46;;;;;;;;;16.75;16.75;14.10;99.90;;;;;;5061267;28;11480;-62
2021/12/05 08:32:35;;;;;;;;;19.00;19.00;14.10;99.90;;;;;;5054243;28;11654;-64
2021/12/05 08:41:09;;;;;;;;;16.00;16.00;14.10;99.90;;;;;;5068474;28;11513;-62
2021/12/05 08:46:08;;;;;;;;;17.25;17.25;14.10;99.90;;;;;;5071851;28;11501;-61
2021/12/05 09:22:38;;;;;;;;;17.25;17.25;14.00;99.90;;;;;;5063574;28;11566;-62
2021/12/05 09:31:00;;;;;;;;;15.75;15.00;14.00;99.90;;;;;;5068042;28;11659;-61
2021/12/05 10:01:38;;;;;;;;;14.00;14.00;13.90;99.90;;;;;;5065326;28;11541;-63
2021/12/05 10:10:38;;;;;;;;;18.00;16.25;13.90;99.90;;;;;;5076652;27;11609;-62
2021/12/05 10:13:21;;;;;;;;;15.75;15.75;14.00;99.90;;;;;;5061551;28;11910;-64
2021/12/05 10:16:09;;;;;;;;;17.75;17.75;14.00;99.90;;;;;;5055052;28;11695;-64
2021/12/05 10:38:50;;;;;;;;;17.00;17.00;14.00;99.90;;;;;;5065819;28;11532;-63
2021/12/05 10:44:09;;;;;;;;;21.25;21.25;14.10;99.90;;;;;;5064505;28;12293;-64
2021/12/05 10:46:46;;;;;;;;;16.50;16.50;14.00;99.90;;;;;;5062323;28;11584;-64
2021/12/05 10:49:17;;;;;;;;;13.25;13.25;14.00;99.90;;;;;;5051307;28;12303;-64
2021/12/05 10:51:57;;;;;;;;;13.75;13.75;14.00;99.90;;;;;;5062667;28;11591;-63
2021/12/05 10:54:29;;;;;;;;;19.00;19.00;14.00;99.90;;;;;;5066956;28;11571;-63
2021/12/05 10:57:03;;;;;;;;;16.25;16.25;14.00;99.90;;;;;;5061211;28;11526;-63
2021/12/05 10:59:38;;;;;;;;;14.75;14.00;14.00;99.90;;;;;;5063206;28;11520;-63
2021/12/05 11:02:24;;;;;;;;;16.75;16.75;14.00;99.90;;;;;;5062017;28;11461;-63
2021/12/05 11:04:55;;;;;;;;;20.75;19.00;14.00;99.90;;;;;;5060675;28;11562;-63
2021/12/05 11:07:26;;;;;;;;;15.00;15.00;14.00;99.90;;;;;;5066727;28;11728;-62
2021/12/05 11:10:02;;;;;;;;;15.00;15.00;14.00;99.90;;;;;;5064037;28;12251;-62
2021/12/05 11:12:38;;;;;;;;;21.75;20.50;14.00;99.90;;;;;;5060113;28;11641;-63
2021/12/05 11:15:13;;;;;;;;;18.75;18.75;14.00;99.90;;;;;;5068677;28;12255;-63
2021/12/05 11:17:47;;;;;;;;;18.00;18.00;14.00;99.90;;;;;;5040595;28;11577;-63
2021/12/05 11:20:29;;;;;;;;;20.00;20.00;14.00;99.90;;;;;;5059892;28;11696;-63
2021/12/05 11:23:00;;;;;;;;;17.00;15.75;13.90;99.90;;;;;;5062815;28;11566;-62
2021/12/05 11:25:35;;;;;;;;;15.75;15.75;13.90;99.90;;;;;;5054496;28;11696;-63
2021/12/05 11:28:08;;;;;;;;;21.50;21.50;14.00;99.90;;;;;;5056273;28;11589;-62
2021/12/05 11:30:43;;;;;;;;;18.25;18.25;14.00;99.90;;;;;;5056999;28;11724;-62
2021/12/05 11:33:20;;;;;;;;;13.25;13.25;13.90;99.90;;;;;;5067922;28;11709;-63
2021/12/05 11:35:59;;;;;;;;;20.50;20.50;13.90;99.90;;;;;;5058912;28;11534;-61
2021/12/05 11:38:35;;;;;;;;;23.00;22.75;13.90;99.90;;;;;;5065430;28;11529;-61
2021/12/05 11:41:12;;;;;;;;;18.50;18.50;13.90;99.90;;;;;;5057756;28;11521;-61
2021/12/05 11:43:46;;;;;;;;;20.50;20.50;13.90;99.90;;;;;;5059766;28;11604;-61
2021/12/05 11:46:26;;;;;;;;;14.50;14.50;13.90;99.90;;;;;;5060598;28;11727;-62
2021/12/05 11:49:02;;;;;;;;;18.50;18.50;13.90;99.90;;;;;;5062654;28;11526;-62
2021/12/05 11:51:37;;;;;;;;;21.75;20.50;13.90;99.90;;;;;;5061880;28;12275;-61
2021/12/05 11:54:21;;;;;;;;;19.25;18.25;13.90;99.90;;;;;;5059969;28;11578;-61
2021/12/05 11:57:17;;;;;;;;;18.50;18.50;13.90;99.90;;;;;;5061602;28;11525;-61
2021/12/05 11:59:51;;;;;;;;;20.25;20.25;13.90;99.90;;;;;;5064447;28;11633;-61
2021/12/05 12:02:29;;;;;;;;;21.75;21.75;13.90;99.90;;;;;;5057895;28;11548;-62
2021/12/05 12:05:02;;;;;;;;;19.75;19.75;13.90;99.90;;;;;;5043959;28;11589;-61
2021/12/05 12:08:07;;;;;;;;;20.00;20.00;13.90;99.90;;;;;;5061384;28;11588;-62
2021/12/05 12:10:49;;;;;;;;;21.25;21.25;13.90;99.90;;;;;;5062742;28;11578;-62
2021/12/05 12:13:24;;;;;;;;;19.00;19.00;13.90;99.90;;;;;;5061625;28;12471;-62
2021/12/05 12:16:00;;;;;;;;;17.50;16.50;13.80;99.90;;;;;;5053608;28;11591;-62
2021/12/05 12:18:33;;;;;;;;;16.25;15.50;13.90;99.90;;;;;;5059935;28;11560;-61
2021/12/05 12:21:18;;;;;;;;;22.50;20.75;13.80;99.90;;;;;;5040302;28;11562;-62
2021/12/05 12:23:53;;;;;;;;;20.25;20.25;13.80;99.90;;;;;;5064636;28;11586;-62
2021/12/05 12:26:24;;;;;;;;;16.50;16.50;13.80;99.90;;;;;;5047323;28;11592;-62
2021/12/05 12:29:00;;;;;;;;;20.00;20.00;13.80;99.90;;;;;;5046846;28;11582;-61
2021/12/05 12:31:36;;;;;;;;;16.00;16.00;13.80;99.90;;;;;;5057881;28;11564;-62
2021/12/05 12:34:10;;;;;;;;;19.25;19.25;13.80;99.90;;;;;;5057126;28;12264;-62
2021/12/05 12:36:47;;;;;;;;;17.25;17.25;13.80;99.90;;;;;;5059580;28;11691;-61
2021/12/05 12:39:20;;;;;;;;;19.50;19.50;13.80;99.90;;;;;;5067805;28;11662;-62
2021/12/05 12:42:26;;;;;;;;;18.75;18.75;13.70;99.90;;;;;;5061595;28;11510;-62
2021/12/05 12:45:13;;;;;;;;;20.00;19.50;13.70;99.90;;;;;;5061662;28;11590;-61
2021/12/05 12:47:56;;;;;;;;;21.00;19.75;13.70;99.90;;;;;;5069033;28;11557;-62
2021/12/05 12:50:33;;;;;;;;;15.50;12.25;13.70;99.90;;;;;;5064034;28;11593;-62
2021/12/05 12:53:28;;;;;;;;;22.50;22.50;13.70;99.90;;;;;;5061723;28;11573;-62
2021/12/05 12:56:19;;;;;;;;;22.00;22.00;13.70;99.90;;;;;;5057196;28;11573;-62
2021/12/05 12:59:05;;;;;;;;;22.00;22.00;13.70;99.90;;;;;;5059871;28;11538;-62
2021/12/05 13:10:30;;;;;;;;;20.00;19.00;13.70;99.90;;;;;;5059142;28;11534;-62
2021/12/05 13:13:27;;;;;;;;;18.75;18.75;13.70;99.90;;;;;;5066899;28;11544;-62
2021/12/05 13:16:15;;;;;;;;;21.00;21.00;13.70;99.90;;;;;;5051341;28;11574;-62
2021/12/05 13:18:51;;;;;;;;;20.25;20.25;13.60;99.90;;;;;;5075396;28;11569;-62
2021/12/05 13:21:35;;;;;;;;;15.25;15.25;13.60;99.90;;;;;;5043352;28;11711;-62
2021/12/05 13:24:42;;;;;;;;;19.00;19.00;13.60;99.90;;;;;;5056860;28;11696;-62
2021/12/05 13:27:29;;;;;;;;;17.00;17.00;13.60;99.90;;;;;;5058292;28;11672;-62
2021/12/05 13:30:00;;;;;;;;;19.75;19.00;13.60;99.90;;;;;;5064109;28;11513;-62
2021/12/05 13:32:32;;;;;;;;;22.25;22.25;13.50;99.90;;;;;;5083620;28;11708;-63
2021/12/05 13:35:11;;;;;;;;;17.25;17.25;13.50;99.90;;;;;;5058287;28;11574;-62
2021/12/05 13:37:51;;;;;;;;;17.50;17.50;13.40;99.90;;;;;;5045219;28;11584;-62
2021/12/05 13:40:27;;;;;;;;;20.50;20.50;13.40;99.90;;;;;;5064440;28;11549;-62
2021/12/05 13:43:10;;;;;;;;;21.25;21.25;13.50;99.90;;;;;;5059057;28;11680;-62
2021/12/05 13:45:43;;;;;;;;;23.00;23.00;13.50;99.90;;;;;;5057930;28;11569;-62
2021/12/05 13:48:25;;;;;;;;;21.50;21.50;13.40;99.90;;;;;;5058882;28;11552;-62
2021/12/05 13:51:04;;;;;;;;;20.50;20.50;13.50;99.90;;;;;;5060739;28;12814;-62
2021/12/05 13:53:51;;;;;;;;;18.00;18.00;13.40;99.90;;;;;;5056177;28;11574;-62
2021/12/05 13:56:27;;;;;;;;;22.50;20.75;13.40;99.90;;;;;;5061444;28;11595;-62
2021/12/05 13:59:04;;;;;;;;;19.00;19.00;13.40;99.90;;;;;;5057992;28;11523;-62
2021/12/05 14:01:45;;;;;;;;;22.25;22.00;13.40;99.90;;;;;;5060501;28;11538;-62
2021/12/05 14:04:18;;;;;;;;;18.75;18.75;13.40;99.90;;;;;;5060045;28;11570;-62
2021/12/05 14:06:53;;;;;;;;;17.50;17.50;13.40;99.90;;;;;;5067468;28;11547;-62
2021/12/05 14:09:52;;;;;;;;;20.00;20.00;13.40;99.90;;;;;;5072648;28;11656;-62
2021/12/05 14:12:29;;;;;;;;;22.00;22.00;13.30;99.90;;;;;;5059849;28;11647;-62
2021/12/05 14:15:07;;;;;;;;;18.25;18.25;13.30;99.90;;;;;;5061498;28;11556;-63
2021/12/05 14:17:42;;;;;;;;;21.25;21.25;13.30;99.90;;;;;;5061736;28;11562;-63
2021/12/05 14:20:20;;;;;;;;;23.00;22.00;13.30;99.90;;;;;;5061351;28;11566;-62
2021/12/05 14:22:50;;;;;;;;;22.75;22.75;13.30;99.90;;;;;;5064136;28;11497;-63
2021/12/05 14:25:25;;;;;;;;;19.25;19.25;13.30;99.90;;;;;;5065909;28;11566;-63
2021/12/05 14:28:04;;;;;;;;;22.25;20.25;13.30;99.90;;;;;;5042350;28;12378;-62
2021/12/05 14:30:35;;;;;;;;;18.50;16.50;13.20;99.90;;;;;;5064759;28;11678;-62
2021/12/05 14:33:06;;;;;;;;;24.25;20.75;13.20;99.90;;;;;;5067927;28;11551;-62
2021/12/05 14:35:40;;;;;;;;;21.50;21.50;13.20;99.90;;;;;;5067056;28;11543;-62
2021/12/05 14:38:10;;;;;;;;;22.50;22.50;13.30;99.90;;;;;;5059126;28;11574;-62
2021/12/05 14:40:43;;;;;;;;;19.00;18.50;13.30;99.90;;;;;;5062337;28;11614;-59
2021/12/05 14:43:20;;;;;;;;;21.25;21.25;13.30;99.90;;;;;;5066699;28;11518;-59
2021/12/05 14:45:51;;;;;;;;;25.00;25.00;13.30;99.90;;;;;;5062119;28;11582;-59
2021/12/05 14:48:25;;;;;;;;;26.50;23.75;13.30;99.90;;;;;;5067521;28;11851;-59
2021/12/05 14:50:58;;;;;;;;;21.75;21.75;13.30;99.90;;;;;;5060115;28;11549;-59
2021/12/05 14:53:30;;;;;;;;;22.50;22.50;13.20;99.90;;;;;;5067672;28;11550;-59
2021/12/05 14:56:00;;;;;;;;;23.00;23.00;13.20;99.90;;;;;;5079427;28;12226;-59
2021/12/05 14:58:31;;;;;;;;;21.25;21.25;13.20;99.90;;;;;;5074180;28;11597;-59
2021/12/05 15:01:01;;;;;;;;;22.50;22.50;13.30;99.90;;;;;;5082308;28;11523;-59
2021/12/05 15:03:33;;;;;;;;;26.75;25.25;13.30;99.90;;;;;;5075201;28;11566;-59
2021/12/05 15:06:07;;;;;;;;;22.75;22.75;13.30;99.90;;;;;;5076075;28;11685;-59
2021/12/05 15:08:38;;;;;;;;;26.50;26.50;13.30;99.90;;;;;;5060075;28;12281;-60
2021/12/05 15:11:10;;;;;;;;;24.00;24.00;13.30;99.90;;;;;;5072876;28;11569;-59
2021/12/05 15:13:41;;;;;;;;;26.50;26.50;13.30;99.90;;;;;;5075025;28;11671;-59
2021/12/05 15:16:12;;;;;;;;;22.50;22.50;13.30;99.90;;;;;;5067370;28;12215;-59
2021/12/05 15:18:42;;;;;;;;;24.75;24.75;13.30;99.90;;;;;;5067480;28;11551;-59
2021/12/05 15:21:12;;;;;;;;;23.75;23.75;13.30;99.90;;;;;;5067329;28;11744;-60
2021/12/05 15:23:46;;;;;;;;;24.50;24.50;13.30;99.90;;;;;;5069276;28;11547;-60
2021/12/05 15:26:17;;;;;;;;;27.00;25.75;13.30;99.90;;;;;;5063722;28;11568;-59
2021/12/05 15:28:48;;;;;;;;;24.00;24.00;13.20;99.90;;;;;;5067430;28;11682;-60
2021/12/05 15:31:39;;;;;;;;;24.25;24.25;13.30;99.90;;;;;;5074741;28;11533;-59
2021/12/05 15:34:31;;;;;;;;;27.25;27.25;13.30;99.90;;;;;;5065587;28;12810;-58
2021/12/05 15:37:09;;;;;;;;;23.50;23.50;13.30;99.90;;;;;;5072178;28;11587;-58
2021/12/05 15:39:45;;;;;;;;;22.50;22.50;13.20;99.90;;;;;;5064276;28;11565;-59
2021/12/05 15:42:21;;;;;;;;;22.50;22.50;13.20;99.90;;;;;;5066376;28;11568;-58
2021/12/05 15:44:53;;;;;;;;;23.50;23.50;13.30;99.90;;;;;;5059685;28;11515;-59
2021/12/05 15:47:34;;;;;;;;;27.00;27.00;13.30;99.90;;;;;;5063463;28;12329;-56
2021/12/05 15:50:12;;;;;;;;;23.00;23.00;13.30;99.90;;;;;;5063002;28;11528;-56
2021/12/05 15:52:50;;;;;;;;;27.00;27.00;13.30;99.90;;;;;;5067216;28;11572;-55
2021/12/05 15:55:40;;;;;;;;;23.25;23.25;13.20;99.90;;;;;;5060038;28;11645;-57
2021/12/05 15:58:30;;;;;;;;;26.00;26.00;13.20;99.90;;;;;;5056622;28;11647;-56
2021/12/05 16:01:13;;;;;;;;;26.50;26.50;13.20;99.90;;;;;;5073222;28;11681;-57
2021/12/05 16:03:51;;;;;;;;;26.00;26.00;13.20;99.90;;;;;;5054728;28;11679;-57
2021/12/05 16:06:35;;;;;;;;;25.50;25.50;13.20;99.90;;;;;;5061690;28;11599;-58
2021/12/05 16:09:24;;;;;;;;;24.25;24.25;13.20;99.90;;;;;;5072327;28;11589;-57
2021/12/05 16:12:13;;;;;;;;;21.50;21.50;13.20;99.90;;;;;;5066944;27;12250;-57
2021/12/05 16:14:56;;;;;;;;;22.00;22.00;13.20;99.90;;;;;;5063273;28;11558;-57
2021/12/05 16:17:29;;;;;;;;;25.50;25.50;13.10;99.90;;;;;;5066451;28;11525;-57
2021/12/05 16:20:15;;;;;;;;;24.50;24.50;13.10;99.90;;;;;;5071481;28;11621;-50
2021/12/05 16:23:08;;;;;;;;;25.50;23.00;13.20;99.90;;;;;;5070537;28;11552;-57
2021/12/05 16:25:56;;;;;;;;;28.25;28.25;13.20;99.90;;;;;;5063260;28;12751;-58
2021/12/05 16:28:42;;;;;;;;;23.75;23.75;13.20;99.90;;;;;;5094644;27;12407;-59
2021/12/05 16:31:31;;;;;;;;;23.75;23.75;13.20;99.90;;;;;;5071535;28;11556;-56
2021/12/05 16:34:05;;;;;;;;;25.25;25.25;13.30;99.90;;;;;;5074222;28;11679;-55
2021/12/05 16:36:42;;;;;;;;;25.50;25.50;13.30;99.90;;;;;;5057581;28;11793;-59
2021/12/05 16:39:15;;;;;;;;;21.00;21.00;13.30;99.90;;;;;;5069618;28;11646;-60
2021/12/05 16:41:55;;;;;;;;;26.75;24.50;13.20;99.90;;;;;;5064034;28;11650;-57
2021/12/05 16:44:27;;;;;;;;;26.75;25.50;13.20;99.90;;;;;;5071357;28;11537;-58
2021/12/05 16:47:02;;;;;;;;;24.75;24.75;13.20;99.90;;;;;;5066434;28;11548;-58
2021/12/05 16:49:36;;;;;;;;;29.00;27.75;13.20;99.90;;;;;;5067328;28;12343;-57
2021/12/05 16:52:10;;;;;;;;;19.50;19.25;13.20;99.90;;;;;;5069776;28;11545;-60
2021/12/05 16:54:50;;;;;;;;;21.75;21.75;13.20;99.90;;;;;;5075937;28;11564;-60
2021/12/05 16:57:30;;;;;;;;;22.00;22.00;13.30;99.90;;;;;;5067321;28;11738;-57
2021/12/05 17:00:11;;;;;;;;;26.50;26.50;13.20;99.90;;;;;;5067069;28;11559;-57
2021/12/05 17:02:51;;;;;;;;;22.50;22.50;13.30;99.90;;;;;;5072326;28;11599;-57
2021/12/05 17:05:36;;;;;;;;;19.00;19.00;13.30;99.90;;;;;;5070557;28;11536;-57
2021/12/05 17:08:23;;;;;;;;;23.00;23.00;13.30;99.90;;;;;;5071929;28;11579;-57
2021/12/05 17:11:09;;;;;;;;;23.50;23.50;13.30;99.90;;;;;;5082750;28;11548;-57
2021/12/05 17:13:45;;;;;;;;;24.75;24.75;13.30;99.90;;;;;;5078200;28;12316;-57
2021/12/05 17:16:30;;;;;;;;;24.25;24.25;13.30;99.90;;;;;;5062889;28;11717;-57
2021/12/05 17:19:08;;;;;;;;;21.50;21.50;13.30;99.90;;;;;;5057770;28;12281;-56
2021/12/05 17:21:48;;;;;;;;;22.25;22.25;13.30;99.90;;;;;;5061487;28;12361;-58
2021/12/05 17:24:28;;;;;;;;;26.00;24.50;13.30;99.90;;;;;;5061568;28;11528;-58
2021/12/05 17:27:05;;;;;;;;;21.25;21.25;13.30;99.90;;;;;;5062263;28;11572;-57
2021/12/05 17:29:45;;;;;;;;;24.75;24.75;13.30;99.90;;;;;;5068014;28;11531;-59
2021/12/05 17:32:20;;;;;;;;;26.00;26.00;13.30;99.90;;;;;;5058603;28;11546;-58
2021/12/05 17:34:58;;;;;;;;;19.50;16.25;13.30;99.90;;;;;;5069476;28;11575;-59
2021/12/05 17:37:32;;;;;;;;;21.00;21.00;13.30;99.90;;;;;;5073569;28;11690;-59
2021/12/05 17:40:23;;;;;;;;;25.50;25.50;13.30;99.90;;;;;;5061744;28;11550;-57
2021/12/05 17:42:53;;;;;;;;;30.00;30.00;13.20;99.90;;;;;;5063104;28;11584;-58
2021/12/05 17:45:23;;;;;;;;;26.75;26.75;13.20;99.90;;;;;;5069392;28;12929;-58
2021/12/05 17:47:52;;;;;;;;;24.75;24.00;13.20;99.90;;;;;;5068333;28;11633;-54
2021/12/05 17:50:24;;;;;;;;;27.50;27.50;13.20;99.90;;;;;;5071898;28;11590;-58
2021/12/05 17:52:57;;;;;;;;;23.25;23.25;13.20;99.90;;;;;;5060136;28;11607;-58
2021/12/05 17:55:32;;;;;;;;;28.75;27.75;13.20;99.90;;;;;;5074319;28;11665;-56
2021/12/05 17:58:18;;;;;;;;;25.00;23.75;13.10;99.90;;;;;;5069695;28;11554;-58
2021/12/05 18:02:36;;;;;;;;;28.00;28.00;13.20;99.90;;;;;;5064712;28;11543;-59
2021/12/05 18:03:51;;;;;;;;;28.75;27.00;13.20;99.90;;;;;;5074689;28;12228;-55
2021/12/05 18:06:23;;;;;;;;;21.25;21.25;13.20;99.90;;;;;;5074878;28;11576;-58
2021/12/05 18:08:54;;;;;;;;;25.25;25.25;13.20;99.90;;;;;;5070966;28;11515;-58
2021/12/05 18:11:25;;;;;;;;;27.50;25.75;13.20;99.90;;;;;;5060572;27;12178;-59
2021/12/05 18:13:57;;;;;;;;;27.75;26.50;13.20;99.90;;;;;;5066995;28;11588;-59
2021/12/05 18:16:31;;;;;;;;;22.25;22.25;13.20;99.90;;;;;;5065114;28;11573;-60
2021/12/05 18:19:06;;;;;;;;;24.25;24.25;13.20;99.90;;;;;;5065970;28;12316;-58
2021/12/05 18:21:39;;;;;;;;;25.75;25.75;13.20;99.90;;;;;;5069661;28;11734;-60
2021/12/05 18:24:13;;;;;;;;;29.00;25.50;13.20;99.90;;;;;;5068100;28;11677;-67
2021/12/05 18:26:44;;;;;;;;;29.75;29.75;13.20;99.90;;;;;;5073125;28;12284;-60
2021/12/05 18:29:16;;;;;;;;;28.25;28.25;13.20;99.90;;;;;;5068827;28;11560;-59
2021/12/05 18:31:48;;;;;;;;;29.25;28.25;13.20;99.90;;;;;;5048140;28;11577;-61
2021/12/05 18:34:27;;;;;;;;;27.50;27.50;13.30;99.90;;;;;;5072428;28;11581;-62
2021/12/05 18:37:03;;;;;;;;;32.00;30.00;13.20;99.90;;;;;;5076647;28;11514;-57